sensor_id;sensor_type;location;lat;lon;timestamp;P1;durP1;ratioP1;P2;durP2;ratioP2
25125;SDS011;13106;50.808;5.670;2023-04-01T00:01:39;6.43;;;0.95;;
25125;SDS011;13106;50.808;5.670;2023-04-01T00:04:05;4.00;;;0.98;;
25125;SDS011;13106;50.808;5.670;2023-04-01T00:06:31;6.70;;;1.10;;
25125;SDS011;13106;50.808;5.670;2023-04-01T00:08:57;4.78;;;0.90;;
25125;SDS011;13106;50.808;5.670;2023-04-01T00:11:23;8.57;;;1.55;;
25125;SDS011;13106;50.808;5.670;2023-04-01T00:13:51;4.70;;;1.25;;
25125;SDS011;13106;50.808;5.670;2023-04-01T00:16:17;3.92;;;0.95;;
25125;SDS011;13106;50.808;5.670;2023-04-01T00:18:43;5.05;;;0.98;;
25125;SDS011;13106;50.808;5.670;2023-04-01T00:21:12;3.22;;;0.88;;
25125;SDS011;13106;50.808;5.670;2023-04-01T00:23:38;3.58;;;1.10;;
25125;SDS011;13106;50.808;5.670;2023-04-01T00:26:04;5.35;;;1.20;;
25125;SDS011;13106;50.808;5.670;2023-04-01T00:28:30;3.78;;;0.98;;
25125;SDS011;13106;50.808;5.670;2023-04-01T00:30:56;3.85;;;0.85;;
25125;SDS011;13106;50.808;5.670;2023-04-01T00:33:22;6.10;;;1.13;;
25125;SDS011;13106;50.808;5.670;2023-04-01T00:35:48;3.30;;;0.80;;
25125;SDS011;13106;50.808;5.670;2023-04-01T00:38:14;7.72;;;1.13;;
25125;SDS011;13106;50.808;5.670;2023-04-01T00:40:42;4.97;;;1.23;;
25125;SDS011;13106;50.808;5.670;2023-04-01T00:43:10;3.42;;;1.35;;
25125;SDS011;13106;50.808;5.670;2023-04-01T00:45:38;3.35;;;1.30;;
25125;SDS011;13106;50.808;5.670;2023-04-01T00:48:17;7.85;;;1.13;;
25125;SDS011;13106;50.808;5.670;2023-04-01T00:50:47;5.30;;;1.02;;
25125;SDS011;13106;50.808;5.670;2023-04-01T00:53:22;7.40;;;1.30;;
25125;SDS011;13106;50.808;5.670;2023-04-01T00:55:51;4.20;;;1.08;;
25125;SDS011;13106;50.808;5.670;2023-04-01T00:58:20;8.20;;;7.55;;
25125;SDS011;13106;50.808;5.670;2023-04-01T01:00:47;3.35;;;1.48;;
25125;SDS011;13106;50.808;5.670;2023-04-01T01:03:14;6.60;;;1.83;;
25125;SDS011;13106;50.808;5.670;2023-04-01T01:08:30;3.30;;;1.27;;
25125;SDS011;13106;50.808;5.670;2023-04-01T01:11:01;5.22;;;1.15;;
25125;SDS011;13106;50.808;5.670;2023-04-01T01:13:34;3.70;;;1.30;;
25125;SDS011;13106;50.808;5.670;2023-04-01T01:16:06;4.00;;;1.10;;
25125;SDS011;13106;50.808;5.670;2023-04-01T01:18:53;4.72;;;0.90;;
25125;SDS011;13106;50.808;5.670;2023-04-01T01:36:31;8.07;;;7.38;;
25125;SDS011;13106;50.808;5.670;2023-04-01T01:39:05;3.83;;;0.90;;
25125;SDS011;13106;50.808;5.670;2023-04-01T01:41:31;1.50;;;0.77;;
25125;SDS011;13106;50.808;5.670;2023-04-01T01:43:58;2.42;;;0.70;;
25125;SDS011;13106;50.808;5.670;2023-04-01T01:46:25;1.95;;;0.68;;
25125;SDS011;13106;50.808;5.670;2023-04-01T01:48:53;2.75;;;0.57;;
25125;SDS011;13106;50.808;5.670;2023-04-01T01:51:20;2.67;;;0.80;;
25125;SDS011;13106;50.808;5.670;2023-04-01T01:53:47;1.60;;;0.60;;
25125;SDS011;13106;50.808;5.670;2023-04-01T01:56:13;1.83;;;0.60;;
25125;SDS011;13106;50.808;5.670;2023-04-01T01:58:43;1.65;;;0.70;;
25125;SDS011;13106;50.808;5.670;2023-04-01T02:01:12;2.60;;;0.82;;
25125;SDS011;13106;50.808;5.670;2023-04-01T02:03:39;3.47;;;1.15;;
25125;SDS011;13106;50.808;5.670;2023-04-01T02:06:07;1.65;;;0.60;;
25125;SDS011;13106;50.808;5.670;2023-04-01T02:08:35;3.58;;;0.70;;
25125;SDS011;13106;50.808;5.670;2023-04-01T02:11:05;1.63;;;0.63;;
25125;SDS011;13106;50.808;5.670;2023-04-01T02:13:49;1.33;;;0.98;;
25125;SDS011;13106;50.808;5.670;2023-04-01T02:19:07;3.53;;;0.82;;
25125;SDS011;13106;50.808;5.670;2023-04-01T02:21:34;3.97;;;0.80;;
25125;SDS011;13106;50.808;5.670;2023-04-01T02:24:02;1.63;;;0.60;;
25125;SDS011;13106;50.808;5.670;2023-04-01T02:26:28;3.78;;;0.77;;
25125;SDS011;13106;50.808;5.670;2023-04-01T02:28:55;3.33;;;0.65;;
25125;SDS011;13106;50.808;5.670;2023-04-01T02:31:22;2.97;;;0.60;;
25125;SDS011;13106;50.808;5.670;2023-04-01T02:33:49;1.77;;;0.70;;
25125;SDS011;13106;50.808;5.670;2023-04-01T02:36:15;1.75;;;0.63;;
25125;SDS011;13106;50.808;5.670;2023-04-01T02:38:41;2.08;;;0.68;;
25125;SDS011;13106;50.808;5.670;2023-04-01T02:41:08;2.97;;;1.05;;
25125;SDS011;13106;50.808;5.670;2023-04-01T02:43:34;3.60;;;0.90;;
25125;SDS011;13106;50.808;5.670;2023-04-01T02:46:00;0.85;;;0.60;;
25125;SDS011;13106;50.808;5.670;2023-04-01T02:48:27;3.13;;;0.82;;
25125;SDS011;13106;50.808;5.670;2023-04-01T02:50:53;4.25;;;0.70;;
25125;SDS011;13106;50.808;5.670;2023-04-01T02:53:19;2.45;;;0.70;;
25125;SDS011;13106;50.808;5.670;2023-04-01T02:55:45;2.03;;;0.73;;
25125;SDS011;13106;50.808;5.670;2023-04-01T02:58:11;1.05;;;0.60;;
25125;SDS011;13106;50.808;5.670;2023-04-01T03:00:37;2.28;;;0.60;;
25125;SDS011;13106;50.808;5.670;2023-04-01T03:03:03;2.05;;;0.60;;
25125;SDS011;13106;50.808;5.670;2023-04-01T03:05:30;2.35;;;0.60;;
25125;SDS011;13106;50.808;5.670;2023-04-01T03:07:56;1.55;;;0.60;;
25125;SDS011;13106;50.808;5.670;2023-04-01T03:10:22;2.38;;;0.50;;
25125;SDS011;13106;50.808;5.670;2023-04-01T03:12:48;1.05;;;0.70;;
25125;SDS011;13106;50.808;5.670;2023-04-01T03:15:14;2.30;;;0.70;;
25125;SDS011;13106;50.808;5.670;2023-04-01T03:17:40;1.13;;;0.80;;
25125;SDS011;13106;50.808;5.670;2023-04-01T03:20:07;1.63;;;0.82;;
25125;SDS011;13106;50.808;5.670;2023-04-01T03:22:34;1.42;;;0.75;;
25125;SDS011;13106;50.808;5.670;2023-04-01T03:25:01;2.40;;;0.80;;
25125;SDS011;13106;50.808;5.670;2023-04-01T03:27:28;1.05;;;0.95;;
25125;SDS011;13106;50.808;5.670;2023-04-01T03:29:54;1.40;;;0.90;;
25125;SDS011;13106;50.808;5.670;2023-04-01T03:32:20;2.58;;;0.90;;
25125;SDS011;13106;50.808;5.670;2023-04-01T03:34:46;1.45;;;1.08;;
25125;SDS011;13106;50.808;5.670;2023-04-01T03:37:12;1.30;;;1.10;;
25125;SDS011;13106;50.808;5.670;2023-04-01T03:39:39;1.75;;;1.40;;
25125;SDS011;13106;50.808;5.670;2023-04-01T03:42:05;1.70;;;1.35;;
25125;SDS011;13106;50.808;5.670;2023-04-01T03:44:31;1.35;;;1.23;;
25125;SDS011;13106;50.808;5.670;2023-04-01T03:46:58;2.63;;;1.30;;
25125;SDS011;13106;50.808;5.670;2023-04-01T03:49:24;2.22;;;1.30;;
25125;SDS011;13106;50.808;5.670;2023-04-01T03:51:50;3.40;;;1.50;;
25125;SDS011;13106;50.808;5.670;2023-04-01T03:54:16;3.10;;;1.40;;
25125;SDS011;13106;50.808;5.670;2023-04-01T03:56:43;3.20;;;1.67;;
25125;SDS011;13106;50.808;5.670;2023-04-01T03:59:09;3.35;;;2.15;;
25125;SDS011;13106;50.808;5.670;2023-04-01T04:01:35;2.67;;;1.88;;
25125;SDS011;13106;50.808;5.670;2023-04-01T04:04:01;3.13;;;2.20;;
25125;SDS011;13106;50.808;5.670;2023-04-01T04:06:27;3.67;;;2.40;;
25125;SDS011;13106;50.808;5.670;2023-04-01T04:08:53;5.53;;;2.40;;
25125;SDS011;13106;50.808;5.670;2023-04-01T04:11:20;6.53;;;2.70;;
25125;SDS011;13106;50.808;5.670;2023-04-01T04:13:46;22.58;;;21.08;;
25125;SDS011;13106;50.808;5.670;2023-04-01T04:16:13;16.35;;;15.10;;
25125;SDS011;13106;50.808;5.670;2023-04-01T04:18:39;5.25;;;4.85;;
25125;SDS011;13106;50.808;5.670;2023-04-01T04:21:06;3.10;;;2.05;;
25125;SDS011;13106;50.808;5.670;2023-04-01T04:23:32;3.53;;;2.00;;
25125;SDS011;13106;50.808;5.670;2023-04-01T04:28:25;3.72;;;2.38;;
25125;SDS011;13106;50.808;5.670;2023-04-01T04:30:51;3.13;;;2.03;;
25125;SDS011;13106;50.808;5.670;2023-04-01T04:33:17;3.03;;;2.50;;
25125;SDS011;13106;50.808;5.670;2023-04-01T04:35:43;3.38;;;2.38;;
25125;SDS011;13106;50.808;5.670;2023-04-01T04:38:09;3.17;;;2.38;;
25125;SDS011;13106;50.808;5.670;2023-04-01T04:40:36;2.42;;;2.13;;
25125;SDS011;13106;50.808;5.670;2023-04-01T04:43:02;3.22;;;2.45;;
25125;SDS011;13106;50.808;5.670;2023-04-01T04:45:28;5.22;;;2.20;;
25125;SDS011;13106;50.808;5.670;2023-04-01T04:47:55;4.97;;;2.85;;
25125;SDS011;13106;50.808;5.670;2023-04-01T04:50:21;6.30;;;3.10;;
25125;SDS011;13106;50.808;5.670;2023-04-01T04:52:47;3.72;;;2.67;;
25125;SDS011;13106;50.808;5.670;2023-04-01T04:55:13;4.53;;;2.97;;
25125;SDS011;13106;50.808;5.670;2023-04-01T04:57:40;3.42;;;2.92;;
25125;SDS011;13106;50.808;5.670;2023-04-01T05:00:06;4.55;;;3.33;;
25125;SDS011;13106;50.808;5.670;2023-04-01T05:02:33;7.53;;;3.88;;
25125;SDS011;13106;50.808;5.670;2023-04-01T05:04:59;5.88;;;3.40;;
25125;SDS011;13106;50.808;5.670;2023-04-01T05:07:25;6.93;;;4.13;;
25125;SDS011;13106;50.808;5.670;2023-04-01T05:09:51;6.00;;;3.88;;
25125;SDS011;13106;50.808;5.670;2023-04-01T05:12:17;8.18;;;3.25;;
25125;SDS011;13106;50.808;5.670;2023-04-01T05:14:44;10.23;;;4.30;;
25125;SDS011;13106;50.808;5.670;2023-04-01T05:17:10;4.72;;;3.80;;
25125;SDS011;13106;50.808;5.670;2023-04-01T05:19:37;7.07;;;4.35;;
25125;SDS011;13106;50.808;5.670;2023-04-01T05:22:03;7.85;;;4.72;;
25125;SDS011;13106;50.808;5.670;2023-04-01T05:24:29;8.20;;;4.47;;
25125;SDS011;13106;50.808;5.670;2023-04-01T05:26:55;6.95;;;4.53;;
25125;SDS011;13106;50.808;5.670;2023-04-01T05:29:22;6.57;;;4.22;;
25125;SDS011;13106;50.808;5.670;2023-04-01T05:31:48;5.75;;;3.90;;
25125;SDS011;13106;50.808;5.670;2023-04-01T05:34:14;4.78;;;3.38;;
25125;SDS011;13106;50.808;5.670;2023-04-01T05:36:40;7.68;;;3.53;;
25125;SDS011;13106;50.808;5.670;2023-04-01T05:39:07;6.07;;;3.95;;
25125;SDS011;13106;50.808;5.670;2023-04-01T05:41:36;6.70;;;4.30;;
25125;SDS011;13106;50.808;5.670;2023-04-01T05:44:03;10.02;;;4.85;;
25125;SDS011;13106;50.808;5.670;2023-04-01T05:46:29;9.48;;;4.88;;
25125;SDS011;13106;50.808;5.670;2023-04-01T05:48:55;8.30;;;4.60;;
25125;SDS011;13106;50.808;5.670;2023-04-01T05:51:21;7.15;;;4.53;;
25125;SDS011;13106;50.808;5.670;2023-04-01T05:53:47;9.98;;;4.68;;
25125;SDS011;13106;50.808;5.670;2023-04-01T05:56:13;8.60;;;4.75;;
25125;SDS011;13106;50.808;5.670;2023-04-01T05:58:39;7.57;;;4.82;;
25125;SDS011;13106;50.808;5.670;2023-04-01T06:01:07;10.15;;;4.75;;
25125;SDS011;13106;50.808;5.670;2023-04-01T06:03:33;11.23;;;5.22;;
25125;SDS011;13106;50.808;5.670;2023-04-01T06:05:59;5.70;;;3.50;;
25125;SDS011;13106;50.808;5.670;2023-04-01T06:08:26;5.72;;;4.13;;
25125;SDS011;13106;50.808;5.670;2023-04-01T06:11:10;7.55;;;4.68;;
25125;SDS011;13106;50.808;5.670;2023-04-01T06:26:39;5.10;;;4.10;;
25125;SDS011;13106;50.808;5.670;2023-04-01T06:29:13;4.63;;;3.50;;
25125;SDS011;13106;50.808;5.670;2023-04-01T06:46:57;7.45;;;4.07;;
25125;SDS011;13106;50.808;5.670;2023-04-01T06:51:57;9.20;;;3.67;;
25125;SDS011;13106;50.808;5.670;2023-04-01T06:54:36;4.57;;;3.55;;
25125;SDS011;13106;50.808;5.670;2023-04-01T06:57:08;5.25;;;3.40;;
25125;SDS011;13106;50.808;5.670;2023-04-01T06:59:38;5.45;;;4.03;;
25125;SDS011;13106;50.808;5.670;2023-04-01T07:02:29;4.13;;;3.17;;
25125;SDS011;13106;50.808;5.670;2023-04-01T07:04:51;6.22;;;3.90;;
25125;SDS011;13106;50.808;5.670;2023-04-01T07:07:24;8.43;;;3.70;;
25125;SDS011;13106;50.808;5.670;2023-04-01T07:09:53;5.97;;;3.63;;
25125;SDS011;13106;50.808;5.670;2023-04-01T07:15:02;5.43;;;2.80;;
25125;SDS011;13106;50.808;5.670;2023-04-01T07:17:30;4.32;;;2.72;;
25125;SDS011;13106;50.808;5.670;2023-04-01T07:22:38;3.85;;;2.78;;
25125;SDS011;13106;50.808;5.670;2023-04-01T07:25:07;3.58;;;2.75;;
25125;SDS011;13106;50.808;5.670;2023-04-01T07:27:36;5.93;;;3.38;;
25125;SDS011;13106;50.808;5.670;2023-04-01T07:30:04;3.38;;;2.45;;
25125;SDS011;13106;50.808;5.670;2023-04-01T07:45:24;3.13;;;2.58;;
25125;SDS011;13106;50.808;5.670;2023-04-01T07:50:28;3.25;;;2.60;;
25125;SDS011;13106;50.808;5.670;2023-04-01T07:55:58;3.30;;;2.72;;
25125;SDS011;13106;50.808;5.670;2023-04-01T08:11:08;4.30;;;2.70;;
25125;SDS011;13106;50.808;5.670;2023-04-01T08:18:37;3.63;;;2.40;;
25125;SDS011;13106;50.808;5.670;2023-04-01T08:24:05;3.33;;;2.63;;
25125;SDS011;13106;50.808;5.670;2023-04-01T08:29:02;3.22;;;2.45;;
25125;SDS011;13106;50.808;5.670;2023-04-01T08:34:05;4.55;;;3.05;;
25125;SDS011;13106;50.808;5.670;2023-04-01T08:36:36;4.40;;;3.10;;
25125;SDS011;13106;50.808;5.670;2023-04-01T08:47:18;4.35;;;2.60;;
25125;SDS011;13106;50.808;5.670;2023-04-01T08:57:31;4.00;;;2.58;;
25125;SDS011;13106;50.808;5.670;2023-04-01T09:40:01;1.65;;;1.00;;
25125;SDS011;13106;50.808;5.670;2023-04-01T09:42:41;1.20;;;0.95;;
25125;SDS011;13106;50.808;5.670;2023-04-01T09:45:33;1.27;;;0.90;;
25125;SDS011;13106;50.808;5.670;2023-04-01T10:03:46;0.95;;;0.80;;
25125;SDS011;13106;50.808;5.670;2023-04-01T10:06:23;1.25;;;0.80;;
25125;SDS011;13106;50.808;5.670;2023-04-01T10:11:41;1.00;;;1.00;;
25125;SDS011;13106;50.808;5.670;2023-04-01T10:19:14;1.30;;;0.98;;
25125;SDS011;13106;50.808;5.670;2023-04-01T10:21:47;2.83;;;0.98;;
25125;SDS011;13106;50.808;5.670;2023-04-01T11:05:43;2.22;;;1.65;;
25125;SDS011;13106;50.808;5.670;2023-04-01T11:08:31;1.15;;;1.10;;
25125;SDS011;13106;50.808;5.670;2023-04-01T11:16:27;1.20;;;1.10;;
25125;SDS011;13106;50.808;5.670;2023-04-01T11:22:07;1.40;;;1.08;;
25125;SDS011;13106;50.808;5.670;2023-04-01T11:24:47;1.30;;;1.20;;
25125;SDS011;13106;50.808;5.670;2023-04-01T11:37:57;1.40;;;1.30;;
25125;SDS011;13106;50.808;5.670;2023-04-01T11:40:35;1.23;;;1.13;;
25125;SDS011;13106;50.808;5.670;2023-04-01T11:45:50;1.10;;;1.00;;
25125;SDS011;13106;50.808;5.670;2023-04-01T11:56:07;2.40;;;2.20;;
25125;SDS011;13106;50.808;5.670;2023-04-01T12:19:23;2.33;;;2.13;;
25125;SDS011;13106;50.808;5.670;2023-04-01T12:32:29;1.77;;;1.67;;
25125;SDS011;13106;50.808;5.670;2023-04-01T12:37:36;3.28;;;1.85;;
25125;SDS011;13106;50.808;5.670;2023-04-01T12:47:55;1.55;;;1.27;;
25125;SDS011;13106;50.808;5.670;2023-04-01T12:50:41;1.30;;;1.20;;
25125;SDS011;13106;50.808;5.670;2023-04-01T12:55:49;1.55;;;1.00;;
25125;SDS011;13106;50.808;5.670;2023-04-01T13:37:46;1.20;;;1.10;;
25125;SDS011;13106;50.808;5.670;2023-04-01T13:40:37;1.67;;;1.50;;
25125;SDS011;13106;50.808;5.670;2023-04-01T13:43:13;3.65;;;2.00;;
25125;SDS011;13106;50.808;5.670;2023-04-01T13:45:52;2.22;;;1.67;;
25125;SDS011;13106;50.808;5.670;2023-04-01T14:32:56;1.30;;;1.20;;
25125;SDS011;13106;50.808;5.670;2023-04-01T14:35:33;1.77;;;1.15;;
25125;SDS011;13106;50.808;5.670;2023-04-01T14:43:33;1.00;;;1.00;;
25125;SDS011;13106;50.808;5.670;2023-04-01T14:46:14;2.47;;;1.43;;
25125;SDS011;13106;50.808;5.670;2023-04-01T14:51:28;1.73;;;1.55;;
25125;SDS011;13106;50.808;5.670;2023-04-01T14:54:00;1.10;;;1.10;;
25125;SDS011;13106;50.808;5.670;2023-04-01T14:56:39;4.75;;;2.10;;
25125;SDS011;13106;50.808;5.670;2023-04-01T14:59:09;2.05;;;1.52;;
25125;SDS011;13106;50.808;5.670;2023-04-01T15:06:53;0.90;;;0.82;;
25125;SDS011;13106;50.808;5.670;2023-04-01T15:09:28;1.08;;;0.90;;
25125;SDS011;13106;50.808;5.670;2023-04-01T15:38:36;1.63;;;1.38;;
25125;SDS011;13106;50.808;5.670;2023-04-01T15:41:17;1.35;;;1.25;;
25125;SDS011;13106;50.808;5.670;2023-04-01T15:43:48;2.20;;;1.30;;
25125;SDS011;13106;50.808;5.670;2023-04-01T15:46:30;1.23;;;1.13;;
25125;SDS011;13106;50.808;5.670;2023-04-01T15:57:00;3.05;;;2.17;;
25125;SDS011;13106;50.808;5.670;2023-04-01T16:09:41;1.42;;;1.33;;
25125;SDS011;13106;50.808;5.670;2023-04-01T16:12:16;1.60;;;1.50;;
25125;SDS011;13106;50.808;5.670;2023-04-01T16:14:49;2.10;;;1.90;;
25125;SDS011;13106;50.808;5.670;2023-04-01T16:22:29;2.90;;;2.67;;
25125;SDS011;13106;50.808;5.670;2023-04-01T16:27:45;2.75;;;2.53;;
25125;SDS011;13106;50.808;5.670;2023-04-01T16:33:05;2.92;;;2.63;;
25125;SDS011;13106;50.808;5.670;2023-04-01T16:38:11;3.92;;;2.72;;
25125;SDS011;13106;50.808;5.670;2023-04-01T16:40:46;3.35;;;2.75;;
25125;SDS011;13106;50.808;5.670;2023-04-01T16:46:26;3.50;;;3.20;;
25125;SDS011;13106;50.808;5.670;2023-04-01T16:48:28;4.78;;;3.42;;
25125;SDS011;13106;50.808;5.670;2023-04-01T16:51:00;3.60;;;3.28;;
25125;SDS011;13106;50.808;5.670;2023-04-01T16:53:36;3.40;;;3.10;;
25125;SDS011;13106;50.808;5.670;2023-04-01T16:56:09;3.95;;;3.40;;
25125;SDS011;13106;50.808;5.670;2023-04-01T16:58:54;3.50;;;3.20;;
25125;SDS011;13106;50.808;5.670;2023-04-01T17:01:29;4.93;;;3.35;;
25125;SDS011;13106;50.808;5.670;2023-04-01T17:06:54;3.78;;;3.30;;
25125;SDS011;13106;50.808;5.670;2023-04-01T17:12:13;3.83;;;3.17;;
25125;SDS011;13106;50.808;5.670;2023-04-01T17:17:24;4.25;;;3.60;;
25125;SDS011;13106;50.808;5.670;2023-04-01T17:19:56;4.45;;;3.47;;
25125;SDS011;13106;50.808;5.670;2023-04-01T17:22:26;4.43;;;3.53;;
25125;SDS011;13106;50.808;5.670;2023-04-01T17:32:39;4.00;;;3.65;;
25125;SDS011;13106;50.808;5.670;2023-04-01T17:43:05;2.38;;;2.05;;
25125;SDS011;13106;50.808;5.670;2023-04-01T17:50:58;2.60;;;1.73;;
25125;SDS011;13106;50.808;5.670;2023-04-01T17:53:33;1.92;;;1.83;;
25125;SDS011;13106;50.808;5.670;2023-04-01T18:06:36;1.70;;;1.60;;
25125;SDS011;13106;50.808;5.670;2023-04-01T18:19:46;1.80;;;1.70;;
25125;SDS011;13106;50.808;5.670;2023-04-01T18:22:21;1.77;;;1.67;;
25125;SDS011;13106;50.808;5.670;2023-04-01T18:25:49;2.28;;;2.05;;
25125;SDS011;13106;50.808;5.670;2023-04-01T18:27:44;2.40;;;2.20;;
25125;SDS011;13106;50.808;5.670;2023-04-01T18:30:20;2.78;;;2.50;;
25125;SDS011;13106;50.808;5.670;2023-04-01T18:32:51;3.38;;;2.63;;
25125;SDS011;13106;50.808;5.670;2023-04-01T18:35:27;4.95;;;2.70;;
25125;SDS011;13106;50.808;5.670;2023-04-01T18:38:00;3.53;;;2.53;;
25125;SDS011;13106;50.808;5.670;2023-04-01T18:41:30;3.97;;;2.67;;
25125;SDS011;13106;50.808;5.670;2023-04-01T18:46:11;3.67;;;2.88;;
25125;SDS011;13106;50.808;5.670;2023-04-01T18:48:51;2.60;;;2.40;;
25125;SDS011;13106;50.808;5.670;2023-04-01T18:54:10;3.60;;;3.28;;
25125;SDS011;13106;50.808;5.670;2023-04-01T18:56:37;4.15;;;3.50;;
25125;SDS011;13106;50.808;5.670;2023-04-01T18:59:11;3.40;;;3.10;;
25125;SDS011;13106;50.808;5.670;2023-04-01T19:04:37;5.18;;;3.30;;
25125;SDS011;13106;50.808;5.670;2023-04-01T19:09:47;4.25;;;3.72;;
25125;SDS011;13106;50.808;5.670;2023-04-01T19:12:32;4.72;;;4.32;;
25125;SDS011;13106;50.808;5.670;2023-04-01T19:15:02;4.80;;;4.30;;
25125;SDS011;13106;50.808;5.670;2023-04-01T19:17:38;6.07;;;4.45;;
25125;SDS011;13106;50.808;5.670;2023-04-01T19:25:49;4.85;;;4.32;;
25125;SDS011;13106;50.808;5.670;2023-04-01T19:28:53;5.75;;;5.25;;
25125;SDS011;13106;50.808;5.670;2023-04-01T19:31:24;5.05;;;4.65;;
25125;SDS011;13106;50.808;5.670;2023-04-01T19:34:08;5.55;;;5.00;;
25125;SDS011;13106;50.808;5.670;2023-04-01T19:36:49;7.15;;;5.32;;
25125;SDS011;13106;50.808;5.670;2023-04-01T19:44:32;6.25;;;5.45;;
25125;SDS011;13106;50.808;5.670;2023-04-01T19:49:41;7.90;;;5.43;;
25125;SDS011;13106;50.808;5.670;2023-04-01T20:02:24;7.15;;;6.00;;
25125;SDS011;13106;50.808;5.670;2023-04-01T20:04:51;5.65;;;5.15;;
25125;SDS011;13106;50.808;5.670;2023-04-01T20:09:49;12.43;;;7.68;;
25125;SDS011;13106;50.808;5.670;2023-04-01T20:14:51;15.80;;;8.82;;
25125;SDS011;13106;50.808;5.670;2023-04-01T20:17:20;9.90;;;6.53;;
25125;SDS011;13106;50.808;5.670;2023-04-01T20:22:31;7.03;;;6.32;;
25125;SDS011;13106;50.808;5.670;2023-04-01T20:24:58;8.10;;;6.20;;
25125;SDS011;13106;50.808;5.670;2023-04-01T20:27:32;7.22;;;6.05;;
25125;SDS011;13106;50.808;5.670;2023-04-01T21:03:05;19.70;;;10.57;;
25125;SDS011;13106;50.808;5.670;2023-04-01T21:10:59;17.25;;;10.38;;
25125;SDS011;13106;50.808;5.670;2023-04-01T21:19:02;12.82;;;9.88;;
25125;SDS011;13106;50.808;5.670;2023-04-01T21:29:32;12.60;;;9.52;;
25125;SDS011;13106;50.808;5.670;2023-04-01T21:34:37;12.50;;;10.07;;
25125;SDS011;13106;50.808;5.670;2023-04-01T21:39:58;10.73;;;8.95;;
25125;SDS011;13106;50.808;5.670;2023-04-01T21:57:57;11.32;;;8.25;;
25125;SDS011;13106;50.808;5.670;2023-04-01T22:00:32;12.75;;;8.98;;
25125;SDS011;13106;50.808;5.670;2023-04-01T22:21:24;10.77;;;8.57;;
25125;SDS011;13106;50.808;5.670;2023-04-01T22:26:38;9.45;;;7.72;;
25125;SDS011;13106;50.808;5.670;2023-04-01T22:39:31;9.52;;;7.90;;
25125;SDS011;13106;50.808;5.670;2023-04-01T22:52:39;9.32;;;7.80;;
25125;SDS011;13106;50.808;5.670;2023-04-01T22:55:25;11.95;;;9.88;;
25125;SDS011;13106;50.808;5.670;2023-04-01T22:57:56;12.60;;;9.63;;
25125;SDS011;13106;50.808;5.670;2023-04-01T23:03:11;10.30;;;8.82;;
25125;SDS011;13106;50.808;5.670;2023-04-01T23:05:42;11.13;;;9.63;;
25125;SDS011;13106;50.808;5.670;2023-04-01T23:10:56;10.15;;;8.95;;
25125;SDS011;13106;50.808;5.670;2023-04-01T23:13:31;10.18;;;9.18;;
25125;SDS011;13106;50.808;5.670;2023-04-01T23:15:58;8.30;;;7.45;;
25125;SDS011;13106;50.808;5.670;2023-04-01T23:23:46;7.85;;;7.05;;
25125;SDS011;13106;50.808;5.670;2023-04-01T23:28:49;7.05;;;6.32;;
25125;SDS011;13106;50.808;5.670;2023-04-01T23:31:26;5.88;;;5.28;;
25125;SDS011;13106;50.808;5.670;2023-04-01T23:33:57;5.18;;;4.70;;
25125;SDS011;13106;50.808;5.670;2023-04-01T23:36:24;6.20;;;5.57;;
25125;SDS011;13106;50.808;5.670;2023-04-01T23:38:50;6.10;;;5.47;;
25125;SDS011;13106;50.808;5.670;2023-04-01T23:41:18;5.57;;;5.03;;
25125;SDS011;13106;50.808;5.670;2023-04-01T23:43:45;6.32;;;5.28;;
25125;SDS011;13106;50.808;5.670;2023-04-01T23:48:45;5.60;;;5.00;;
25125;SDS011;13106;50.808;5.670;2023-04-01T23:51:27;6.45;;;5.45;;
25125;SDS011;13106;50.808;5.670;2023-04-01T23:54:04;6.63;;;5.95;;
25125;SDS011;13106;50.808;5.670;2023-04-01T23:56:44;7.63;;;6.28;;
25125;SDS011;13106;50.808;5.670;2023-04-01T23:59:18;8.30;;;7.32;;
